Time;durP1;ratioP1;P1;durP2;ratioP2;P2;SDS_P1;SDS_P2;PMS_P1;PMS_P2;Temp;Humidity;BMP_temperature;BMP_pressure;BME280_temperature;BME280_humidity;BME280_pressure;Samples;Min_cycle;Max_cycle;Signal;HPM_P1;HPM_P2
2023/10/07 00:00:26;;;;;;;;;;;20.70;67.40;;;;;;10152603;28;94449;-57
2023/10/07 00:05:32;;;;;;;;;;;20.70;67.40;;;;;;10153483;28;94419;-57
2023/10/07 00:10:37;;;;;;;;;;;20.70;67.40;;;;;;10162603;28;92679;-57
2023/10/07 00:15:43;;;;;;;;;;;20.70;67.40;;;;;;10152796;28;94631;-57
2023/10/07 00:20:50;;;;;;;;;;;20.70;67.40;;;;;;10149536;28;94455;-57
2023/10/07 00:25:54;;;;;;;;;;;20.70;67.40;;;;;;10150705;28;96098;-57
2023/10/07 00:31:01;;;;;;;;;;;20.70;67.40;;;;;;10155475;28;94137;-57
2023/10/07 00:36:10;;;;;;;;;;;20.70;67.50;;;;;;10165931;28;94753;-66
2023/10/07 00:41:15;;;;;;;;;;;20.70;67.50;;;;;;10146395;28;94534;-57
2023/10/07 00:46:28;;;;;;;;;;;20.70;67.60;;;;;;10153042;28;93816;-57
2023/10/07 00:51:34;;;;;;;;;;;20.60;67.50;;;;;;10153927;28;94503;-57
2023/10/07 00:56:37;;;;;;;;;;;20.60;67.50;;;;;;10165187;28;93660;-58
2023/10/07 01:07:03;;;;;;;;;;;20.60;67.50;;;;;;9938747;22;95164;-70
2023/10/07 01:12:08;;;;;;;;;;;20.60;67.40;;;;;;10204915;28;94456;-69
2023/10/07 01:17:14;;;;;;;;;;;20.60;67.40;;;;;;10185674;28;96209;-70
2023/10/07 01:22:18;;;;;;;;;;;20.60;67.40;;;;;;10201059;28;93982;-70
2023/10/07 01:32:30;;;;;;;;;;;20.60;67.30;;;;;;10189715;28;93467;-67
2023/10/07 01:37:41;;;;;;;;;;;20.60;67.40;;;;;;10191032;28;93553;-67
2023/10/07 01:42:44;;;;;;;;;;;20.60;67.40;;;;;;10182224;28;93824;-68
2023/10/07 01:47:55;;;;;;;;;;;20.60;67.30;;;;;;10181566;28;93929;-67
2023/10/07 01:52:58;;;;;;;;;;;20.70;67.40;;;;;;10181802;28;93286;-67
2023/10/07 01:57:59;;;;;;;;;;;20.70;67.30;;;;;;10189608;28;93465;-67
2023/10/07 02:03:02;;;;;;;;;;;20.70;67.30;;;;;;10200680;28;94571;-67
2023/10/07 02:08:04;;;;;;;;;;;20.70;67.30;;;;;;10198132;28;96547;-69
2023/10/07 02:13:08;;;;;;;;;;;20.70;67.30;;;;;;10188455;28;93383;-69
2023/10/07 02:18:19;;;;;;;;;;;20.70;67.20;;;;;;10173792;28;94980;-69
2023/10/07 02:23:34;;;;;;;;;;;20.70;67.30;;;;;;10178597;28;94451;-69
2023/10/07 02:28:36;;;;;;;;;;;20.70;67.20;;;;;;10171519;28;94624;-69
2023/10/07 02:33:51;;;;;;;;;;;20.70;67.30;;;;;;10172614;28;94392;-69
2023/10/07 02:38:54;;;;;;;;;;;20.70;67.10;;;;;;10176094;28;94624;-68
2023/10/07 02:44:02;;;;;;;;;;;20.70;67.20;;;;;;10181066;28;93846;-69
2023/10/07 02:49:10;;;;;;;;;;;20.70;67.20;;;;;;10167226;28;94650;-69
2023/10/07 02:54:19;;;;;;;;;;;20.70;67.30;;;;;;10183163;28;95598;-69
2023/10/07 02:59:29;;;;;;;;;;;20.70;67.30;;;;;;10186797;28;95836;-69
2023/10/07 03:04:34;;;;;;;;;;;20.70;67.40;;;;;;10177250;28;93516;-69
2023/10/07 03:09:36;;;;;;;;;;;20.70;67.30;;;;;;10183298;28;94376;-69
2023/10/07 03:14:39;;;;;;;;;;;20.60;67.30;;;;;;10189041;28;94537;-68
2023/10/07 03:19:56;;;;;;;;;;;20.60;67.30;;;;;;10190947;28;96331;-69
2023/10/07 03:25:03;;;;;;;;;;;20.60;67.50;;;;;;10192311;28;92955;-68
2023/10/07 03:30:15;;;;;;;;;;;20.60;67.40;;;;;;10187798;28;93457;-69
2023/10/07 03:35:35;;;;;;;;;;;20.60;67.70;;;;;;10179374;28;93601;-68
2023/10/07 03:40:47;;;;;;;;;;;20.60;67.50;;;;;;10168555;28;94452;-68
2023/10/07 03:45:50;;;;;;;;;;;20.60;67.60;;;;;;10181027;28;93461;-69
2023/10/07 03:51:08;;;;;;;;;;;20.60;67.60;;;;;;10169130;28;95740;-68
2023/10/07 03:56:10;;;;;;;;;;;20.60;67.60;;;;;;10181543;28;94379;-68
2023/10/07 04:01:19;;;;;;;;;;;20.60;67.70;;;;;;10166472;28;93912;-68
2023/10/07 04:06:21;;;;;;;;;;;20.60;67.70;;;;;;10178197;28;93611;-69
2023/10/07 04:11:26;;;;;;;;;;;20.60;67.70;;;;;;10160999;28;93527;-68
2023/10/07 04:16:33;;;;;;;;;;;20.60;67.70;;;;;;10188274;28;93226;-68
2023/10/07 04:21:41;;;;;;;;;;;20.60;67.70;;;;;;10184273;28;94553;-68
2023/10/07 04:26:51;;;;;;;;;;;20.60;67.70;;;;;;10200373;28;92693;-68
2023/10/07 04:31:54;;;;;;;;;;;20.50;67.70;;;;;;10177841;28;93430;-68
2023/10/07 04:42:05;;;;;;;;;;;20.50;67.70;;;;;;10187119;28;97047;-69
2023/10/07 04:52:30;;;;;;;;;;;20.50;67.80;;;;;;10193256;28;93456;-69
2023/10/07 05:02:48;;;;;;;;;;;20.50;67.70;;;;;;10181444;28;94354;-68
2023/10/07 05:07:56;;;;;;;;;;;20.50;67.70;;;;;;10184190;28;94575;-69
2023/10/07 05:13:01;;;;;;;;;;;20.50;67.80;;;;;;10186778;28;94582;-68
2023/10/07 05:18:03;;;;;;;;;;;20.60;67.70;;;;;;10203173;28;93822;-69
2023/10/07 05:23:06;;;;;;;;;;;20.60;67.60;;;;;;10189926;28;93498;-68
2023/10/07 05:28:11;;;;;;;;;;;20.60;67.50;;;;;;10149758;28;94237;-68
2023/10/07 05:33:14;;;;;;;;;;;20.60;67.50;;;;;;10173748;28;95976;-69
2023/10/07 05:38:17;;;;;;;;;;;20.60;67.50;;;;;;10181541;28;94766;-69
2023/10/07 05:43:18;;;;;;;;;;;20.60;67.50;;;;;;10185501;28;94581;-68
2023/10/07 05:48:21;;;;;;;;;;;20.70;67.50;;;;;;10176639;28;94628;-68
2023/10/07 05:53:23;;;;;;;;;;;20.70;67.60;;;;;;10176953;28;93366;-68
2023/10/07 05:58:25;;;;;;;;;;;20.70;67.50;;;;;;10197258;28;94473;-68
2023/10/07 06:03:28;;;;;;;;;;;20.70;67.70;;;;;;10176920;28;94421;-68
2023/10/07 06:08:32;;;;;;;;;;;20.70;67.80;;;;;;10202064;28;92777;-69
2023/10/07 06:13:37;;;;;;;;;;;20.70;67.80;;;;;;10164535;28;94053;-68
2023/10/07 06:18:39;;;;;;;;;;;20.70;67.90;;;;;;10190951;28;92668;-69
2023/10/07 06:23:41;;;;;;;;;;;20.70;67.90;;;;;;10192528;28;95881;-68
2023/10/07 06:28:48;;;;;;;;;;;20.70;68.10;;;;;;10169193;28;94445;-68
2023/10/07 06:33:59;;;;;;;;;;;20.70;68.10;;;;;;10177913;28;93690;-69
2023/10/07 06:39:01;;;;;;;;;;;20.70;68.20;;;;;;10179682;28;93539;-68
2023/10/07 06:44:04;;;;;;;;;;;20.70;68.20;;;;;;10171539;28;93420;-68
2023/10/07 06:49:07;;;;;;;;;;;20.70;68.30;;;;;;10180285;28;93552;-69
2023/10/07 06:54:09;;;;;;;;;;;20.70;68.40;;;;;;10170856;28;92898;-68
2023/10/07 06:59:13;;;;;;;;;;;20.70;68.40;;;;;;10177533;28;92965;-69
2023/10/07 07:04:15;;;;;;;;;;;20.70;68.60;;;;;;10188012;28;95110;-69
2023/10/07 07:14:46;;;;;;;;;;;20.70;68.70;;;;;;10179149;28;95839;-69
2023/10/07 07:20:18;;;;;;;;;;;20.70;68.70;;;;;;10166815;28;93205;-68
2023/10/07 07:25:11;;;;;;;;;;;20.70;68.80;;;;;;10196598;28;94497;-69
2023/10/07 07:30:19;;;;;;;;;;;20.70;68.90;;;;;;10180208;28;94650;-68
2023/10/07 07:35:38;;;;;;;;;;;20.70;69.00;;;;;;10190692;28;95192;-67
2023/10/07 07:40:42;;;;;;;;;;;20.70;68.90;;;;;;10191712;28;94541;-71
2023/10/07 07:45:46;;;;;;;;;;;20.70;69.60;;;;;;10167989;28;94766;-65
2023/10/07 07:50:48;;;;;;;;;;;20.80;68.20;;;;;;10181599;28;93485;-66
2023/10/07 07:55:55;;;;;;;;;;;20.80;68.80;;;;;;10195430;28;93691;-67
2023/10/07 08:01:01;;;;;;;;;;;20.90;68.60;;;;;;10198230;28;94697;-67
2023/10/07 08:06:04;;;;;;;;;;;21.00;68.90;;;;;;10198042;28;95852;-66
2023/10/07 08:11:07;;;;;;;;;;;21.10;68.70;;;;;;10188150;28;92815;-66
2023/10/07 08:16:15;;;;;;;;;;;21.20;69.10;;;;;;10185522;28;93484;-66
2023/10/07 08:21:28;;;;;;;;;;;21.30;69.30;;;;;;10174528;28;93840;-67
2023/10/07 08:26:34;;;;;;;;;;;21.30;69.50;;;;;;10187255;28;94483;-66
2023/10/07 08:31:43;;;;;;;;;;;21.40;68.90;;;;;;10191896;28;93200;-68
2023/10/07 08:36:47;;;;;;;;;;;21.40;69.00;;;;;;10186399;28;93801;-68
2023/10/07 08:41:52;;;;;;;;;;;21.50;68.70;;;;;;10196255;28;93516;-67
2023/10/07 08:47:03;;;;;;;;;;;21.50;68.80;;;;;;10179423;28;94594;-67
2023/10/07 08:52:08;;;;;;;;;;;21.60;68.70;;;;;;10191518;28;94382;-68
2023/10/07 08:57:18;;;;;;;;;;;21.60;68.40;;;;;;10163087;28;97731;-67
2023/10/07 09:02:26;;;;;;;;;;;21.60;67.90;;;;;;10183019;28;93693;-67
2023/10/07 09:07:32;;;;;;;;;;;21.60;67.60;;;;;;10201028;28;94282;-68
2023/10/07 09:12:43;;;;;;;;;;;21.70;67.40;;;;;;10201503;28;94854;-68
2023/10/07 09:17:45;;;;;;;;;;;21.70;67.20;;;;;;10186718;28;94507;-68
2023/10/07 09:22:53;;;;;;;;;;;21.80;66.90;;;;;;10188519;28;93540;-68
2023/10/07 09:27:59;;;;;;;;;;;21.80;66.60;;;;;;10198228;28;93389;-68
2023/10/07 09:33:06;;;;;;;;;;;21.90;66.30;;;;;;10185869;28;93236;-68
2023/10/07 09:38:12;;;;;;;;;;;21.90;66.20;;;;;;10195413;28;94677;-69
2023/10/07 09:43:19;;;;;;;;;;;21.90;66.00;;;;;;10172871;28;95991;-68
2023/10/07 09:48:31;;;;;;;;;;;21.90;66.10;;;;;;10185053;28;97001;-69
2023/10/07 09:53:41;;;;;;;;;;;21.90;66.20;;;;;;10188138;28;93836;-69
2023/10/07 09:58:52;;;;;;;;;;;21.80;66.00;;;;;;10186442;28;93953;-68
2023/10/07 10:04:11;;;;;;;;;;;21.80;66.10;;;;;;10190093;28;94534;-69
2023/10/07 10:09:16;;;;;;;;;;;21.80;66.20;;;;;;10197941;28;94301;-69
2023/10/07 10:14:40;;;;;;;;;;;21.80;66.00;;;;;;10198256;28;93382;-69
2023/10/07 10:19:44;;;;;;;;;;;21.70;65.60;;;;;;10187910;28;94642;-69
2023/10/07 10:24:47;;;;;;;;;;;21.70;65.50;;;;;;10164395;28;94126;-68
2023/10/07 10:30:03;;;;;;;;;;;21.70;65.20;;;;;;10162305;28;94767;-68
2023/10/07 10:35:06;;;;;;;;;;;21.70;64.90;;;;;;10161277;28;93662;-69
2023/10/07 10:40:12;;;;;;;;;;;21.60;64.60;;;;;;10162711;28;96258;-68
2023/10/07 10:45:21;;;;;;;;;;;21.70;64.60;;;;;;10162642;28;93658;-69
2023/10/07 10:50:24;;;;;;;;;;;21.70;64.10;;;;;;10163759;28;93489;-68
2023/10/07 10:55:33;;;;;;;;;;;21.70;64.10;;;;;;10136047;28;94238;-70
2023/10/07 11:00:48;;;;;;;;;;;21.70;64.10;;;;;;10153947;28;93696;-69
2023/10/07 11:05:53;;;;;;;;;;;21.70;64.00;;;;;;10161973;28;112558;-68
2023/10/07 11:10:57;;;;;;;;;;;21.70;63.90;;;;;;10162420;28;94353;-68
2023/10/07 11:16:09;;;;;;;;;;;21.60;63.80;;;;;;10143903;28;93953;-70
2023/10/07 11:21:18;;;;;;;;;;;21.60;63.70;;;;;;10163167;28;93499;-69
2023/10/07 11:26:21;;;;;;;;;;;21.60;63.50;;;;;;10167898;28;93503;-70
2023/10/07 11:31:30;;;;;;;;;;;21.60;63.60;;;;;;10172620;28;97089;-71
2023/10/07 11:36:50;;;;;;;;;;;21.70;64.40;;;;;;10170358;28;94725;-67
2023/10/07 11:41:54;;;;;;;;;;;21.80;65.80;;;;;;10168409;28;94183;-67
2023/10/07 11:46:56;;;;;;;;;;;22.00;66.80;;;;;;10179091;28;93416;-68
2023/10/07 11:51:58;;;;;;;;;;;22.00;65.70;;;;;;10172180;28;94022;-67
2023/10/07 11:57:02;;;;;;;;;;;22.10;65.80;;;;;;10166315;28;94332;-67
2023/10/07 12:02:09;;;;;;;;;;;22.10;66.10;;;;;;10163130;28;94128;-67
2023/10/07 12:07:14;;;;;;;;;;;22.10;66.30;;;;;;10174843;28;93960;-67
2023/10/07 12:12:17;;;;;;;;;;;22.10;66.30;;;;;;10170331;28;94530;-69
2023/10/07 12:17:20;;;;;;;;;;;22.10;66.40;;;;;;10164857;28;93968;-70
2023/10/07 12:22:22;;;;;;;;;;;22.10;66.00;;;;;;10170672;28;96463;-70
2023/10/07 12:27:26;;;;;;;;;;;22.10;66.50;;;;;;10170947;28;94716;-69
2023/10/07 12:32:28;;;;;;;;;;;22.10;65.90;;;;;;10174866;28;96282;-69
2023/10/07 12:37:31;;;;;;;;;;;22.10;65.80;;;;;;10165441;28;94474;-69
2023/10/07 12:42:33;;;;;;;;;;;22.00;65.50;;;;;;10165465;28;94356;-69
2023/10/07 12:47:34;;;;;;;;;;;22.00;65.20;;;;;;10170072;28;94539;-69
2023/10/07 12:52:37;;;;;;;;;;;22.00;65.00;;;;;;10159914;28;94756;-69
2023/10/07 12:57:41;;;;;;;;;;;22.00;64.80;;;;;;10165574;28;94527;-69
2023/10/07 13:02:44;;;;;;;;;;;21.90;64.40;;;;;;10167413;28;95011;-69
2023/10/07 13:07:46;;;;;;;;;;;21.90;64.30;;;;;;10176445;28;94460;-69
2023/10/07 13:12:55;;;;;;;;;;;21.90;64.10;;;;;;10170674;28;96832;-69
2023/10/07 13:17:58;;;;;;;;;;;21.90;64.20;;;;;;10170754;28;94404;-69
2023/10/07 13:23:06;;;;;;;;;;;21.90;64.20;;;;;;10182974;28;93454;-69
2023/10/07 13:28:10;;;;;;;;;;;21.90;63.70;;;;;;10179036;28;93794;-69
2023/10/07 13:33:13;;;;;;;;;;;21.90;63.70;;;;;;10179202;28;93488;-69
2023/10/07 13:38:15;;;;;;;;;;;21.90;63.70;;;;;;10188155;28;93328;-68
2023/10/07 13:43:17;;;;;;;;;;;21.90;63.50;;;;;;10169024;28;94489;-69
2023/10/07 13:48:20;;;;;;;;;;;21.80;63.10;;;;;;10131503;28;94016;-68
2023/10/07 13:53:40;;;;;;;;;;;21.90;63.00;;;;;;10139182;28;94908;-70
2023/10/07 13:58:42;;;;;;;;;;;21.90;63.70;;;;;;10154542;28;93864;-68
2023/10/07 14:03:44;;;;;;;;;;;21.90;63.30;;;;;;10149897;28;96488;-69
2023/10/07 14:08:50;;;;;;;;;;;21.90;63.20;;;;;;10131955;28;94606;-68
2023/10/07 14:13:52;;;;;;;;;;;21.90;63.20;;;;;;10154841;28;95425;-67
2023/10/07 14:18:53;;;;;;;;;;;21.90;63.20;;;;;;10147278;28;94443;-68
2023/10/07 14:23:55;;;;;;;;;;;21.90;63.00;;;;;;10142041;28;94374;-67
2023/10/07 14:28:57;;;;;;;;;;;21.90;62.90;;;;;;10141922;28;93959;-67
2023/10/07 14:33:59;;;;;;;;;;;21.90;62.70;;;;;;10167482;28;93447;-68
2023/10/07 14:39:02;;;;;;;;;;;21.90;62.70;;;;;;10174140;28;93691;-67
2023/10/07 14:44:05;;;;;;;;;;;21.90;62.50;;;;;;10177468;28;94071;-68
2023/10/07 14:49:08;;;;;;;;;;;21.90;62.50;;;;;;10182632;28;93947;-67
2023/10/07 14:54:10;;;;;;;;;;;21.90;62.50;;;;;;10162988;28;95740;-68
2023/10/07 14:59:15;;;;;;;;;;;21.90;62.40;;;;;;10174201;28;93855;-68
2023/10/07 15:04:17;;;;;;;;;;;21.90;64.00;;;;;;10174995;28;95722;-68
2023/10/07 15:09:22;;;;;;;;;;;22.00;64.80;;;;;;10169296;28;93464;-68
2023/10/07 15:14:24;;;;;;;;;;;22.00;64.70;;;;;;10187431;28;94261;-68
2023/10/07 15:19:26;;;;;;;;;;;22.00;64.90;;;;;;10176294;28;93525;-68
2023/10/07 15:24:29;;;;;;;;;;;22.00;64.70;;;;;;10177268;28;92932;-68
2023/10/07 15:29:33;;;;;;;;;;;22.00;64.80;;;;;;10177789;28;93369;-68
2023/10/07 15:34:35;;;;;;;;;;;22.00;64.30;;;;;;10181883;28;93432;-66
2023/10/07 15:39:37;;;;;;;;;;;22.00;64.60;;;;;;10184756;28;94449;-66
2023/10/07 15:44:39;;;;;;;;;;;22.00;64.70;;;;;;10158062;28;97001;-67
2023/10/07 15:49:44;;;;;;;;;;;22.00;64.60;;;;;;10181495;28;94202;-69
2023/10/07 15:54:47;;;;;;;;;;;22.10;66.70;;;;;;10179501;28;93448;-70
2023/10/07 15:59:49;;;;;;;;;;;22.30;66.30;;;;;;10166055;28;94096;-68
2023/10/07 16:04:50;;;;;;;;;;;22.40;67.00;;;;;;10182007;28;94591;-67
2023/10/07 16:09:52;;;;;;;;;;;22.60;68.20;;;;;;10183321;28;94517;-68
2023/10/07 16:14:54;;;;;;;;;;;22.90;68.10;;;;;;10186981;28;94471;-70
2023/10/07 16:19:56;;;;;;;;;;;23.30;67.30;;;;;;10186043;28;93743;-68
2023/10/07 16:24:59;;;;;;;;;;;23.40;66.70;;;;;;10191595;28;95955;-67
2023/10/07 16:30:05;;;;;;;;;;;23.30;66.10;;;;;;10172693;28;94672;-66
2023/10/07 16:35:09;;;;;;;;;;;23.30;66.00;;;;;;10170189;28;95836;-68
2023/10/07 16:40:16;;;;;;;;;;;23.10;65.80;;;;;;10181559;28;93481;-66
2023/10/07 16:45:18;;;;;;;;;;;23.00;65.60;;;;;;10168329;28;95873;-68
2023/10/07 16:50:19;;;;;;;;;;;22.90;65.60;;;;;;10179021;28;95798;-67
2023/10/07 16:55:21;;;;;;;;;;;22.90;66.70;;;;;;10175112;28;95040;-67
2023/10/07 17:00:23;;;;;;;;;;;22.80;65.50;;;;;;10186648;28;94260;-67
2023/10/07 17:05:25;;;;;;;;;;;22.70;65.50;;;;;;10178329;28;94751;-68
2023/10/07 17:10:27;;;;;;;;;;;22.70;65.50;;;;;;10185230;28;94836;-67
2023/10/07 17:15:29;;;;;;;;;;;22.60;65.20;;;;;;10161677;28;94863;-68
2023/10/07 17:20:37;;;;;;;;;;;22.60;65.00;;;;;;10179692;28;94457;-67
2023/10/07 17:25:40;;;;;;;;;;;22.60;64.90;;;;;;10187641;28;97285;-67
2023/10/07 17:30:42;;;;;;;;;;;22.50;64.90;;;;;;10184880;28;94920;-68
2023/10/07 17:35:50;;;;;;;;;;;22.50;64.70;;;;;;10175581;28;94550;-68
2023/10/07 17:40:52;;;;;;;;;;;22.50;64.50;;;;;;10189217;28;93175;-67
2023/10/07 17:45:53;;;;;;;;;;;22.50;64.50;;;;;;10185910;28;93491;-67
2023/10/07 17:50:55;;;;;;;;;;;22.50;64.30;;;;;;10183608;28;93630;-67
2023/10/07 17:56:04;;;;;;;;;;;22.40;64.30;;;;;;10187405;28;94341;-69
2023/10/07 18:01:08;;;;;;;;;;;22.40;64.10;;;;;;10187533;28;94604;-68
2023/10/07 18:06:11;;;;;;;;;;;22.40;64.00;;;;;;10189391;28;94445;-68
2023/10/07 18:11:13;;;;;;;;;;;22.40;64.30;;;;;;10194769;28;94591;-69
2023/10/07 18:16:14;;;;;;;;;;;22.40;64.00;;;;;;10184930;28;96166;-69
2023/10/07 18:21:16;;;;;;;;;;;22.40;65.00;;;;;;10184659;28;94363;-69
2023/10/07 18:26:19;;;;;;;;;;;22.40;64.50;;;;;;10175075;28;93461;-68
2023/10/07 18:31:23;;;;;;;;;;;22.40;65.10;;;;;;10176961;28;93310;-67
2023/10/07 18:36:26;;;;;;;;;;;22.40;65.20;;;;;;10162596;28;93540;-66
2023/10/07 18:41:30;;;;;;;;;;;22.40;65.10;;;;;;10187426;28;94800;-68
2023/10/07 18:46:32;;;;;;;;;;;22.40;64.90;;;;;;10187884;28;94627;-68
2023/10/07 18:51:34;;;;;;;;;;;22.40;63.80;;;;;;10170817;28;93713;-68
2023/10/07 18:56:36;;;;;;;;;;;22.40;63.80;;;;;;10167887;28;94371;-68
2023/10/07 19:01:38;;;;;;;;;;;22.40;63.60;;;;;;10170585;28;94427;-68
2023/10/07 19:06:40;;;;;;;;;;;22.30;63.90;;;;;;10180175;28;96934;-68
2023/10/07 19:11:42;;;;;;;;;;;22.30;63.70;;;;;;10186874;28;93151;-67
2023/10/07 19:16:46;;;;;;;;;;;22.30;63.60;;;;;;10163036;28;93458;-68
2023/10/07 19:21:48;;;;;;;;;;;22.30;63.50;;;;;;10161706;28;93298;-68
2023/10/07 19:26:50;;;;;;;;;;;22.30;63.00;;;;;;10176799;28;94380;-68
2023/10/07 19:31:54;;;;;;;;;;;22.30;62.90;;;;;;10179259;28;93742;-67
2023/10/07 19:36:56;;;;;;;;;;;22.30;62.70;;;;;;10172414;28;94347;-68
2023/10/07 19:41:58;;;;;;;;;;;22.30;62.70;;;;;;10184104;28;93732;-68
2023/10/07 19:47:00;;;;;;;;;;;22.30;62.50;;;;;;10180311;28;95548;-68
2023/10/07 19:52:02;;;;;;;;;;;22.20;62.20;;;;;;10186172;28;94784;-68
2023/10/07 19:57:04;;;;;;;;;;;22.20;62.20;;;;;;10186155;28;96371;-68
2023/10/07 20:02:05;;;;;;;;;;;22.20;61.90;;;;;;10196707;28;93772;-68
2023/10/07 20:07:09;;;;;;;;;;;22.20;61.80;;;;;;10182829;28;94344;-68
2023/10/07 20:12:12;;;;;;;;;;;22.20;61.70;;;;;;10166695;28;96424;-68
2023/10/07 20:17:14;;;;;;;;;;;22.20;61.60;;;;;;10166571;28;94505;-68
2023/10/07 20:22:17;;;;;;;;;;;22.20;61.50;;;;;;10176736;28;93439;-68
2023/10/07 20:27:19;;;;;;;;;;;22.10;61.60;;;;;;10191087;28;94442;-67
2023/10/07 20:32:21;;;;;;;;;;;22.10;61.40;;;;;;10179208;28;93930;-68
2023/10/07 20:37:25;;;;;;;;;;;22.10;61.20;;;;;;10176528;28;92622;-68
2023/10/07 20:42:27;;;;;;;;;;;22.10;61.10;;;;;;10171958;28;94140;-68
2023/10/07 20:47:29;;;;;;;;;;;22.10;61.10;;;;;;10181069;28;96798;-68
2023/10/07 20:52:32;;;;;;;;;;;22.00;61.00;;;;;;10190102;28;93861;-68
2023/10/07 20:57:35;;;;;;;;;;;22.00;60.90;;;;;;10179344;28;94838;-67
2023/10/07 21:02:37;;;;;;;;;;;22.10;60.90;;;;;;10179296;28;94391;-68
2023/10/07 21:07:39;;;;;;;;;;;22.00;60.70;;;;;;10169453;28;93833;-67
2023/10/07 21:12:41;;;;;;;;;;;22.00;60.60;;;;;;10189401;28;94264;-68
2023/10/07 21:17:44;;;;;;;;;;;22.00;60.50;;;;;;10193052;28;93417;-67
2023/10/07 21:22:45;;;;;;;;;;;22.00;60.40;;;;;;10193450;28;92723;-68
2023/10/07 21:27:47;;;;;;;;;;;22.00;60.30;;;;;;10180224;28;93960;-68
2023/10/07 21:32:49;;;;;;;;;;;21.90;60.10;;;;;;10184862;28;93462;-68
2023/10/07 21:37:52;;;;;;;;;;;21.90;60.00;;;;;;10171794;28;96971;-68
2023/10/07 21:42:54;;;;;;;;;;;21.90;60.00;;;;;;10167677;28;94442;-68
2023/10/07 21:47:57;;;;;;;;;;;21.90;60.00;;;;;;10166140;28;93767;-68
2023/10/07 21:52:59;;;;;;;;;;;21.90;60.00;;;;;;10170663;28;94520;-68
2023/10/07 21:58:01;;;;;;;;;;;21.90;60.00;;;;;;10182984;28;94384;-68
2023/10/07 22:03:15;;;;;;;;;;;21.90;60.00;;;;;;10186965;28;93699;-68
2023/10/07 22:08:18;;;;;;;;;;;21.90;59.80;;;;;;10182988;28;94908;-68
2023/10/07 22:13:21;;;;;;;;;;;21.90;59.70;;;;;;10175706;28;92825;-68
2023/10/07 22:18:23;;;;;;;;;;;21.90;59.40;;;;;;10186741;28;94140;-68
2023/10/07 22:23:26;;;;;;;;;;;21.90;59.20;;;;;;10180022;28;93435;-68
2023/10/07 22:28:29;;;;;;;;;;;21.90;59.20;;;;;;10175294;28;95825;-68
2023/10/07 22:33:33;;;;;;;;;;;21.90;59.00;;;;;;10168663;28;94559;-68
2023/10/07 22:38:39;;;;;;;;;;;21.90;59.00;;;;;;10171057;28;94510;-68
2023/10/07 22:43:42;;;;;;;;;;;21.90;59.00;;;;;;10146615;28;93919;-68
2023/10/07 22:48:46;;;;;;;;;;;21.90;58.90;;;;;;10185256;28;94445;-68
2023/10/07 22:54:01;;;;;;;;;;;21.90;58.70;;;;;;10166902;28;92637;-68
2023/10/07 22:59:04;;;;;;;;;;;21.90;58.40;;;;;;10189948;28;93904;-68
2023/10/07 23:04:13;;;;;;;;;;;21.90;58.50;;;;;;10179990;28;93051;-68
2023/10/07 23:09:21;;;;;;;;;;;21.90;58.20;;;;;;10172186;28;94406;-68
2023/10/07 23:14:23;;;;;;;;;;;21.90;58.20;;;;;;10170130;28;93582;-68
2023/10/07 23:19:39;;;;;;;;;;;21.90;58.10;;;;;;10153383;28;95825;-68
2023/10/07 23:29:43;;;;;;;;;;;21.90;57.80;;;;;;10171339;28;94548;-68
2023/10/07 23:34:46;;;;;;;;;;;21.90;57.80;;;;;;10171033;28;93764;-69
2023/10/07 23:39:57;;;;;;;;;;;21.90;57.70;;;;;;10184075;28;94661;-69
2023/10/07 23:45:06;;;;;;;;;;;21.90;57.60;;;;;;10178980;28;94363;-68
2023/10/07 23:50:15;;;;;;;;;;;21.90;57.40;;;;;;10178384;28;94423;-68
2023/10/07 23:55:30;;;;;;;;;;;21.90;57.20;;;;;;10163647;28;93145;-68
